Terminal Aerodrome Forecast
Issued by NWS

Home | Current Version | Previous Version | Text Only | Print | Product List | Glossary On
Versions: 1 2 3 4 5 6 7 8 9 10 11 12 13 14 15
420
FTUS44 KBMX 261127
TAFEET
TAF
KEET 261127Z 2612/2712 16004KT 4SM BR OVC006
     FM261700 19009KT P6SM OVC025
     FM262000 20009KT P6SM BKN050
     FM270900 18003KT 6SM BR BKN007 OVC015=

USA.gov is the U.S. government's official web portal to all federal, state and local government web resources and services.